Flight Track Log - Related Links

Times and Time Zones

All times are in EDT time to prevent confusion due to time zone crossing. See the NGF88J flight status page for this flight to view local times or setup timezone preferences in your user account.

Time Position Orientation Groundspeed Altitude Reporting Facility
EDT Latitude Longitude Course Direction KTS MPH feet Rate Location/Type
Tue 08:43:05 PM 33.4100 -94.0292 209° Southwest 146 168 1,700  Level Fort Worth Center
Tue 08:44:05 PM 33.3769 -94.0453 202° Southwest 139 160 2,000 250 Climbing Fort Worth Center
Tue 08:45:05 PM 33.3358 -94.0669 204° Southwest 145 167 2,200 400 Climbing Fort Worth Center
Tue 08:46:05 PM 33.2989 -94.0881 206° Southwest 152 175 2,800 500 Climbing Fort Worth Center
Tue 08:47:00 PM 33.2155 -94.1049 207° Southwest  Level Estimated
Tue 08:47:05 PM 33.2597 -94.1094 205° Southwest 152 175 3,200  Level Fort Worth Center
Tue 08:48:05 PM 33.2228 -94.1308 206° Southwest 152 175 3,700 539 Climbing Fort Worth Center
Tue 08:48:34 PM 33.2042 -94.1464 215° Southwest 160 184 4,000 500 Climbing Fort Worth Center
Tue 08:49:05 PM 33.1858 -94.1544 200° South 152 175 4,200 527 Climbing Fort Worth Center
Tue 08:50:05 PM 33.1508 -94.1781 209° Southwest 152 175 4,800 574 Climbing Fort Worth Center
Tue 08:51:00 PM 33.1203 -94.2064 218° Southwest 137 158 5,300 500 Climbing Fort Worth Center
Tue 08:51:05 PM 33.1181 -94.2017 119° Southeast 147 169 5,300 492 Level Fort Worth Center
Tue 08:52:01 PM 33.0833 -94.2275 212° Southwest 141 162 5,800 500 Climbing Fort Worth Center
Tue 08:52:05 PM 33.0831 -94.2250 98° East 147 169 5,800 500 Level Fort Worth Center
Tue 08:53:01 PM 33.0503 -94.2511 214° Southwest 142 163 6,300 500 Climbing Fort Worth Center
Tue 08:53:05 PM 33.0483 -94.2486 133° Southeast 147 169 6,300 545 Level Fort Worth Center
Tue 08:53:56 PM 33.0175 -94.2694 210° Southwest 141 162 6,800 500 Climbing Fort Worth Center
Tue 08:54:05 PM 33.0153 -94.2672 140° Southeast 141 162 6,800 435 Level Fort Worth Center
Tue 08:55:05 PM 32.9825 -94.2881 208° Southwest 141 162 7,300 450 Climbing Fort Worth Center
Tue 08:56:05 PM 32.9475 -94.3117 210° Southwest 141 162 7,700 400 Climbing Fort Worth Center
Tue 08:57:05 PM 32.9125 -94.3325 207° Southwest 136 157 8,100 150 Climbing Fort Worth Center
Tue 08:58:05 PM 32.8756 -94.3536 206° Southwest 141 162 8,000 -50 Descending Fort Worth Center
Tue 08:59:04 PM 32.8344 -94.3822 210° Southwest 155 178 8,000  Level Fort Worth Center
Tue 09:00:05 PM 32.7956 -94.4108 212° Southwest 160 184 8,000  Level Fort Worth Center
Tue 09:01:05 PM 32.7544 -94.4369 208° Southwest 165 190 8,000  Level Fort Worth Center
Tue 09:02:05 PM 32.7217 -94.4625 213° Southwest 165 190 8,000  Level Fort Worth Center
Tue 09:03:05 PM 32.6742 -94.4914 207° Southwest 165 190 8,000  Level Fort Worth Center
Tue 09:04:05 PM 32.6372 -94.5147 208° Southwest 171 197 8,000  Level Fort Worth Center
Tue 09:05:05 PM 32.5856 -94.5411 203° Southwest 176 203 8,000  Level Fort Worth Center
Tue 09:06:05 PM 32.5528 -94.5617 208° Southwest 171 197 8,000  Level Fort Worth Center
Tue 09:07:05 PM 32.5011 -94.5906 205° Southwest 176 203 8,000  Level Fort Worth Center
Tue 09:08:05 PM 32.4642 -94.6139 208° Southwest 176 203 8,000  Level Fort Worth Center
Tue 09:09:05 PM 32.4167 -94.6400 205° Southwest 176 203 8,000  Level Fort Worth Center
Tue 09:10:05 PM 32.3775 -94.6658 209° Southwest 176 203 8,000  Level Fort Worth Center
Tue 09:11:05 PM 32.3258 -94.6919 203° Southwest 176 203 8,000  Level Fort Worth Center
Tue 09:12:04 PM 32.2828 -94.7203 209° Southwest 176 203 8,000  Level Fort Worth Center
Tue 09:13:05 PM 32.2436 -94.7483 211° Southwest 176 203 8,000  Level Fort Worth Center
Tue 09:14:05 PM 32.2086 -94.7714 209° Southwest 176 203 8,000  Level Fort Worth Center
Tue 09:15:05 PM 32.1636 -94.8097 216° Southwest 181 208 8,000  Level Fort Worth Center
Tue 09:16:05 PM 32.1225 -94.8403 212° Southwest 181 208 8,000  Level Fort Worth Center
Tue 09:17:05 PM 32.0769 -94.8683 208° Southwest 173 199 8,000  Level Fort Worth Center
Tue 09:18:05 PM 32.0400 -94.8989 215° Southwest 168 193 8,000  Level Fort Worth Center
Tue 09:19:05 PM 31.9967 -94.9269 209° Southwest 168 193 8,000  Level Fort Worth Center
Tue 09:20:05 PM 31.9514 -94.9575 210° Southwest 173 199 8,000  Level Fort Worth Center
Tue 09:21:05 PM 31.9081 -94.9833 207° Southwest 179 206 8,000  Level Fort Worth Center
Tue 09:22:58 PM 31.8225 -95.0375 208° Southwest 182 209 8,000  Level Houston Center
Tue 09:24:05 PM 31.7761 -95.0697 211° Southwest 179 206 8,000  Level Fort Worth Center
Tue 09:25:05 PM 31.7328 -95.0953 207° Southwest 179 206 8,000  Level Fort Worth Center
Tue 09:27:02 PM 31.6478 -95.1461 207° Southwest 176 203 8,000  Level Houston Center
Tue 09:28:03 PM 31.6061 -95.1703 206° Southwest 170 196 8,000  Level Houston Center
Tue 09:29:05 PM 31.5622 -95.1956 206° Southwest 174 200 8,000  Level Houston Center
Tue 09:30:06 PM 31.5192 -95.2203 206° Southwest 173 199 8,000  Level Houston Center
Tue 09:31:07 PM 31.4644 -95.2508 205° Southwest 181 208 8,000  Level Houston Center
Tue 09:32:08 PM 31.4206 -95.2758 206° Southwest 178 205 8,000  Level Houston Center
Tue 09:33:09 PM 31.3769 -95.3019 207° Southwest 178 205 8,000  Level Houston Center
Tue 09:34:10 PM 31.3317 -95.3278 206° Southwest 180 207 8,000  Level Houston Center
Tue 09:35:11 PM 31.2878 -95.3533 206° Southwest 177 204 8,000  Level Houston Center
Tue 09:36:12 PM 31.2436 -95.3808 208° Southwest 180 207 8,000  Level Houston Center
Tue 09:37:13 PM 31.1978 -95.4033 203° Southwest 181 208 8,000  Level Houston Center
Tue 09:38:14 PM 31.1464 -95.4083 185° South 186 214 8,000  Level Houston Center
Tue 09:39:16 PM 31.0956 -95.4122 184° South 185 213 8,000  Level Houston Center
Tue 09:40:17 PM 31.0442 -95.4161 184° South 186 214 8,000 -98 Level Houston Center
Tue 09:41:18 PM 30.9817 -95.4236 186° South 187 215 7,800 -197 Descending Houston Center
Tue 09:42:19 PM 30.9272 -95.4297 185° South 194 223 7,600 -246 Descending Houston Center
Tue 09:43:20 PM 30.8739 -95.4386 188° South 193 222 7,300 -295 Descending Houston Center
Tue 09:44:21 PM 30.8178 -95.4456 186° South 200 230 7,000 -310 Descending Houston Center
Tue 09:45:16 PM 30.7697 -95.4542 189° South 193 222 6,700 -295 Descending Houston Center
Tue 09:45:22 PM 30.7650 -95.4539 177° South 196 226 6,700 -295 Level Houston Center
Tue 09:46:17 PM 30.7139 -95.4633 189° South 192 221 6,400 -295 Descending Houston Center
Tue 09:46:23 PM 30.7117 -95.4619 152° Southeast 194 223 6,400 -295 Level Houston Center
Tue 09:47:18 PM 30.6600 -95.4722 190° South 191 220 6,100 -295 Descending Houston Center
Tue 09:47:24 PM 30.6622 -95.4703 37° Northeast 188 216 6,100 -393 Level Houston Center
Tue 09:48:19 PM 30.6081 -95.4786 188° South 192 221 5,700 -400 Descending Houston Center
Tue 09:48:24 PM 30.6083 -95.4786 360° North 191 220 5,700 -400 Level Houston Center
Tue 09:49:19 PM 30.5500 -95.4881 188° South 196 226 5,300 -393 Descending Houston Center
Tue 09:49:25 PM 30.5536 -95.4872 11° North 196 226 5,300 -295 Level Houston Center
Tue 09:50:20 PM 30.4983 -95.4967 188° South 192 221 5,000 -295 Descending Houston Center
Tue 09:50:26 PM 30.5006 -95.4950 33° Northeast 194 223 5,000 -269 Level Houston Center
Tue 09:51:27 PM 30.4517 -95.5033 188° South 181 208 4,700 -393 Descending Houston Center
Tue 09:52:28 PM 30.4014 -95.5128 189° South 183 211 4,200 -492 Descending Houston Center
Tue 09:53:29 PM 30.3408 -95.5214 187° South 182 209 3,700 -443 Descending Houston Center
Tue 09:54:30 PM 30.2914 -95.5294 188° South 181 208 3,300 -393 Descending Houston Center
Tue 09:55:31 PM 30.2419 -95.5403 191° South 181 208 2,900 -455 Descending Houston Center
Tue 09:55:36 PM 30.2358 -95.5425 197° South 179 206 2,800 -600 Descending Houston Center
Tue 09:56:31 PM 30.1928 -95.5525 191° South 176 203 2,300 -536 Descending Houston Center
Tue 09:56:32 PM 30.1944 -95.5525 360° North 176 203 2,300 -787 Level Houston Center
Tue 09:57:32 PM 30.1436 -95.5656 193° South 171 197 1,500 -492 Descending Houston Center
Tue 09:57:33 PM 30.1433 -95.5692 265° West 175 201 1,800 -677 Climbing Houston Center
Tue 09:58:34 PM 30.1031 -95.5603 169° South 168 193 800 -1,000 Descending Houston Center
Tue 09:58:39 PM 30.0967 -95.5592 171° South 142 163 700 -197 Descending Houston Center
Tue 09:59:35 PM 30.0694 -95.5533 169° South 156 180 600 -107 Descending Houston Center

Login

Don't have an account? Register now (free) for customized features, flight alerts, and more!